createdAt,value
2018-08-22T00:00:12.863Z,1012.33
2018-08-22T00:01:11.864Z,1012.30
2018-08-22T00:03:05.666Z,1012.31
2018-08-22T00:04:05.664Z,1012.32
2018-08-22T00:05:59.088Z,1012.30
2018-08-22T00:06:59.044Z,1012.27
2018-08-22T00:08:52.463Z,1012.25
2018-08-22T00:09:52.377Z,1012.29
2018-08-22T00:11:49.341Z,1012.29
2018-08-22T00:12:48.330Z,1012.23
2018-08-22T00:14:41.650Z,1012.30
2018-08-22T00:15:41.579Z,1012.24
2018-08-22T00:17:38.625Z,1012.24
2018-08-22T00:18:35.106Z,1012.26
2018-08-22T00:20:28.966Z,1012.27
2018-08-22T00:21:28.037Z,1012.24
2018-08-22T00:23:22.375Z,1012.22
2018-08-22T00:24:21.769Z,1012.20
2018-08-22T00:26:15.227Z,1012.22
2018-08-22T00:27:15.149Z,1012.19
2018-08-22T00:29:08.609Z,1012.19
2018-08-22T00:30:08.169Z,1012.19
2018-08-22T00:32:01.921Z,1012.17
2018-08-22T00:33:02.013Z,1012.12
2018-08-22T00:34:55.957Z,1012.14
2018-08-22T00:35:55.360Z,1012.13
2018-08-22T00:37:55.383Z,1012.10
2018-08-22T00:38:48.883Z,1012.12
2018-08-22T00:40:42.673Z,1012.11
2018-08-22T00:41:42.549Z,1012.08
2018-08-22T00:43:36.084Z,1012.05
2018-08-22T00:44:35.617Z,1012.10
2018-08-22T00:46:28.924Z,1012.04
2018-08-22T00:47:28.975Z,1012.07
2018-08-22T00:49:22.328Z,1012.03
2018-08-22T00:50:21.942Z,1012.05
2018-08-22T00:52:15.733Z,1012.00
2018-08-22T00:53:15.693Z,1011.99
2018-08-22T00:55:13.838Z,1011.94
2018-08-22T00:56:08.989Z,1011.98
2018-08-22T00:58:02.396Z,1011.98
2018-08-22T00:59:02.372Z,1011.97
2018-08-22T01:00:58.821Z,1011.95
2018-08-22T01:01:55.702Z,1011.92
2018-08-22T01:03:48.614Z,1011.91
2018-08-22T01:04:48.589Z,1011.88
2018-08-22T01:06:42.036Z,1011.89
2018-08-22T01:07:42.026Z,1011.88
2018-08-22T01:09:36.911Z,1011.87
2018-08-22T01:10:35.039Z,1011.87
2018-08-22T01:12:30.755Z,1011.86
2018-08-22T01:13:28.772Z,1011.85
2018-08-22T01:15:22.229Z,1011.84
2018-08-22T01:16:22.157Z,1011.85
2018-08-22T01:18:15.493Z,1011.83
2018-08-22T01:19:15.561Z,1011.87
2018-08-22T01:21:09.971Z,1011.81
2018-08-22T01:22:09.534Z,1011.86
2018-08-22T01:24:03.258Z,1011.85
2018-08-22T01:25:02.914Z,1011.85
2018-08-22T01:26:57.269Z,1011.84
2018-08-22T01:27:56.342Z,1011.84
2018-08-22T01:29:50.031Z,1011.80
2018-08-22T01:30:50.080Z,1011.79
2018-08-22T01:32:43.470Z,1011.78
2018-08-22T01:33:43.516Z,1011.76
2018-08-22T01:35:36.788Z,1011.76
2018-08-22T01:36:36.435Z,1011.75
2018-08-22T01:38:30.191Z,1011.76
2018-08-22T01:39:30.216Z,1011.73
2018-08-22T01:41:23.564Z,1011.75
2018-08-22T01:42:23.610Z,1011.76
2018-08-22T01:44:16.908Z,1011.72
2018-08-22T01:45:16.952Z,1011.75
2018-08-22T01:47:10.364Z,1011.74
2018-08-22T01:48:10.334Z,1011.76
2018-08-22T01:50:04.695Z,1011.73
2018-08-22T01:51:04.664Z,1011.72
2018-08-22T01:53:01.109Z,1011.70
2018-08-22T01:53:58.054Z,1011.71
2018-08-22T01:55:51.497Z,1011.72
2018-08-22T01:56:51.533Z,1011.70
2018-08-22T01:58:44.871Z,1011.72
2018-08-22T01:59:44.833Z,1011.73
2018-08-22T02:01:37.763Z,1011.71
2018-08-22T02:02:37.329Z,1011.71
2018-08-22T02:04:31.072Z,1011.71
2018-08-22T02:05:31.069Z,1011.69
2018-08-22T02:07:24.445Z,1011.71
2018-08-22T02:08:24.064Z,1011.70
2018-08-22T02:10:22.443Z,1011.69
2018-08-22T02:11:18.790Z,1011.64
2018-08-22T02:13:14.253Z,1011.67
2018-08-22T02:14:13.164Z,1011.63
2018-08-22T02:16:06.570Z,1011.66
2018-08-22T02:17:06.207Z,1011.58
2018-08-22T02:18:59.965Z,1011.61
2018-08-22T02:19:59.568Z,1011.60
2018-08-22T02:21:54.836Z,1011.62
2018-08-22T02:22:53.388Z,1011.61
2018-08-22T02:24:51.299Z,1011.58
2018-08-22T02:25:47.645Z,1011.64
2018-08-22T02:27:41.033Z,1011.58
2018-08-22T02:28:41.069Z,1011.58
2018-08-22T02:30:34.408Z,1011.59
2018-08-22T02:31:34.412Z,1011.58
2018-08-22T02:33:27.883Z,1011.60
2018-08-22T02:34:27.487Z,1011.56
2018-08-22T02:36:21.751Z,1011.61
2018-08-22T02:37:21.173Z,1011.63
2018-08-22T02:39:14.597Z,1011.62
2018-08-22T02:40:14.554Z,1011.60
2018-08-22T02:42:07.972Z,1011.65
2018-08-22T02:43:07.572Z,1011.62
2018-08-22T02:45:01.373Z,1011.63
2018-08-22T02:46:00.946Z,1011.60
2018-08-22T02:47:54.658Z,1011.63
2018-08-22T02:48:54.704Z,1011.60
2018-08-22T02:50:47.728Z,1011.59
2018-08-22T02:51:47.349Z,1011.61
2018-08-22T02:53:45.206Z,1011.57
2018-08-22T02:54:43.574Z,1011.59
2018-08-22T02:56:36.944Z,1011.55
2018-08-22T02:57:37.230Z,1011.55
2018-08-22T02:59:30.308Z,1011.55
2018-08-22T03:00:30.391Z,1011.51
2018-08-22T03:02:27.795Z,1011.55
2018-08-22T03:03:24.732Z,1011.53
2018-08-22T03:05:18.600Z,1011.57
2018-08-22T03:06:18.635Z,1011.50
2018-08-22T03:08:12.038Z,1011.53
2018-08-22T03:09:12.685Z,1011.57
2018-08-22T03:11:05.415Z,1011.52
2018-08-22T03:12:05.435Z,1011.52
2018-08-22T03:14:00.800Z,1011.51
2018-08-22T03:14:58.328Z,1011.51
2018-08-22T03:16:51.821Z,1011.54
2018-08-22T03:17:51.690Z,1011.52
2018-08-22T03:19:45.033Z,1011.55
2018-08-22T03:20:45.018Z,1011.51
2018-08-22T03:22:39.487Z,1011.48
2018-08-22T03:23:39.028Z,1011.46
2018-08-22T03:25:38.115Z,1011.46
2018-08-22T03:26:32.045Z,1011.48
2018-08-22T03:28:24.986Z,1011.38
2018-08-22T03:29:24.941Z,1011.39
2018-08-22T03:31:18.675Z,1011.39
2018-08-22T03:32:18.649Z,1011.40
2018-08-22T03:34:12.120Z,1011.40
2018-08-22T03:35:12.087Z,1011.38
2018-08-22T03:37:05.475Z,1011.42
2018-08-22T03:38:05.384Z,1011.34
2018-08-22T03:40:01.872Z,1011.35
2018-08-22T03:41:00.991Z,1011.30
2018-08-22T03:42:53.250Z,1011.36
2018-08-22T03:43:53.149Z,1011.36
2018-08-22T03:45:51.050Z,1011.38
2018-08-22T03:46:45.698Z,1011.37
2018-08-22T03:48:39.472Z,1011.38
2018-08-22T03:49:39.443Z,1011.37
2018-08-22T03:51:32.884Z,1011.41
2018-08-22T03:52:32.456Z,1011.40
2018-08-22T03:54:27.143Z,1011.45
2018-08-22T03:55:28.660Z,1011.39
2018-08-22T03:57:21.398Z,1011.46
2018-08-22T03:58:21.604Z,1011.43
2018-08-22T04:00:15.809Z,1011.46
2018-08-22T04:01:14.420Z,1011.45
2018-08-22T04:03:08.132Z,1011.44
2018-08-22T04:04:08.153Z,1011.48
2018-08-22T04:06:02.284Z,1011.49
2018-08-22T04:08:15.595Z,1011.47
2018-08-22T04:09:15.579Z,1011.48
2018-08-22T04:11:09.206Z,1011.47
2018-08-22T04:12:08.883Z,1011.46
2018-08-22T04:14:02.537Z,1011.40
2018-08-22T04:15:02.616Z,1011.42
2018-08-22T04:16:56.207Z,1011.46
2018-08-22T04:17:55.676Z,1011.42
2018-08-22T04:19:49.411Z,1011.43
2018-08-22T04:20:49.299Z,1011.44
2018-08-22T04:22:42.360Z,1011.43
2018-08-22T04:23:42.264Z,1011.43
2018-08-22T04:25:35.391Z,1011.47
2018-08-22T04:26:34.773Z,1011.45
2018-08-22T04:28:29.539Z,1011.47
2018-08-22T04:29:29.027Z,1011.48
2018-08-22T04:31:25.021Z,1011.51
2018-08-22T04:32:22.112Z,1011.46
2018-08-22T04:34:15.821Z,1011.48
2018-08-22T04:35:15.807Z,1011.50
2018-08-22T04:37:09.207Z,1011.48
2018-08-22T04:38:09.159Z,1011.49
2018-08-22T04:40:02.574Z,1011.52
2018-08-22T04:41:03.106Z,1011.51
2018-08-22T04:42:55.262Z,1011.49
2018-08-22T04:43:55.635Z,1011.49
2018-08-22T04:45:50.013Z,1011.50
2018-08-22T04:46:48.477Z,1011.51
2018-08-22T04:48:43.354Z,1011.51
2018-08-22T04:49:42.703Z,1011.50
2018-08-22T04:51:35.684Z,1011.52
2018-08-22T04:52:34.775Z,1011.48
2018-08-22T04:54:29.088Z,1011.52
2018-08-22T04:55:28.434Z,1011.51
2018-08-22T04:57:21.935Z,1011.48
2018-08-22T04:58:21.901Z,1011.54
2018-08-22T05:00:15.313Z,1011.55
2018-08-22T05:01:15.313Z,1011.56
2018-08-22T05:03:09.650Z,1011.57
2018-08-22T05:04:08.616Z,1011.58
2018-08-22T05:06:03.419Z,1011.60
2018-08-22T05:07:01.571Z,1011.57
2018-08-22T05:08:55.525Z,1011.59
2018-08-22T05:09:54.955Z,1011.60
2018-08-22T05:11:48.777Z,1011.57
2018-08-22T05:12:47.950Z,1011.55
2018-08-22T05:14:41.807Z,1011.58
2018-08-22T05:15:41.710Z,1011.61
2018-08-22T05:17:35.123Z,1011.57
2018-08-22T05:18:35.126Z,1011.64
2018-08-22T05:20:28.508Z,1011.61
2018-08-22T05:21:28.457Z,1011.57
2018-08-22T05:23:21.914Z,1011.56
2018-08-22T05:25:35.230Z,1011.52
2018-08-22T05:26:35.754Z,1011.55
2018-08-22T05:28:30.177Z,1011.57
2018-08-22T05:29:29.216Z,1011.54
2018-08-22T05:31:22.177Z,1011.58
2018-08-22T05:32:22.149Z,1011.50
2018-08-22T05:34:16.338Z,1011.54
2018-08-22T05:35:16.319Z,1011.55
2018-08-22T05:37:10.762Z,1011.55
2018-08-22T05:38:10.722Z,1011.56
2018-08-22T05:40:10.612Z,1011.54
2018-08-22T05:41:05.017Z,1011.57
2018-08-22T05:42:57.912Z,1011.58
2018-08-22T05:43:57.905Z,1011.60
2018-08-22T05:45:51.828Z,1011.64
2018-08-22T05:46:50.956Z,1011.61
2018-08-22T05:48:44.706Z,1011.65
2018-08-22T05:49:44.681Z,1011.65
2018-08-22T05:51:40.685Z,1011.72
2018-08-22T05:52:40.593Z,1011.76
2018-08-22T05:54:34.516Z,1011.71
2018-08-22T05:55:33.615Z,1011.77
2018-08-22T05:57:27.100Z,1011.75
2018-08-22T05:58:26.759Z,1011.74
2018-08-22T06:00:21.168Z,1011.76
2018-08-22T06:01:21.170Z,1011.74
2018-08-22T06:03:21.787Z,1011.76
2018-08-22T06:04:21.547Z,1011.73
2018-08-22T06:06:14.804Z,1011.76
2018-08-22T06:07:14.820Z,1011.80
2018-08-22T06:09:08.233Z,1011.79
2018-08-22T06:10:08.069Z,1011.83
2018-08-22T06:12:01.634Z,1011.81
2018-08-22T06:13:01.584Z,1011.82
2018-08-22T06:14:55.043Z,1011.79
2018-08-22T06:15:54.983Z,1011.76
2018-08-22T06:17:48.395Z,1011.81
2018-08-22T06:18:48.031Z,1011.78
2018-08-22T06:20:41.330Z,1011.80
2018-08-22T06:21:41.209Z,1011.83
2018-08-22T06:23:35.863Z,1011.83
2018-08-22T06:24:34.646Z,1011.78
2018-08-22T06:26:28.043Z,1011.85
2018-08-22T06:27:28.113Z,1011.83
2018-08-22T06:29:21.449Z,1011.84
2018-08-22T06:30:21.058Z,1011.82
2018-08-22T06:32:14.875Z,1011.80
2018-08-22T06:33:14.473Z,1011.78
2018-08-22T06:35:08.246Z,1011.78
2018-08-22T06:36:08.407Z,1011.78
2018-08-22T06:38:02.725Z,1011.75
2018-08-22T06:39:02.733Z,1011.77
2018-08-22T06:40:55.984Z,1011.76
2018-08-22T06:41:55.656Z,1011.76
2018-08-22T06:43:49.457Z,1011.72
2018-08-22T06:44:49.064Z,1011.69
2018-08-22T06:46:42.305Z,1011.71
2018-08-22T06:47:42.364Z,1011.75
2018-08-22T06:49:36.794Z,1011.74
2018-08-22T06:50:36.839Z,1011.71
2018-08-22T06:52:30.166Z,1011.77
2018-08-22T06:53:30.114Z,1011.80
2018-08-22T06:55:23.510Z,1011.79
2018-08-22T06:56:23.474Z,1011.76
2018-08-22T06:58:16.842Z,1011.77
2018-08-22T06:59:16.940Z,1011.75
2018-08-22T07:01:09.898Z,1011.73
2018-08-22T07:02:09.843Z,1011.75
2018-08-22T07:04:03.697Z,1011.72
2018-08-22T07:05:03.450Z,1011.75
2018-08-22T07:06:56.052Z,1011.74
2018-08-22T07:07:56.158Z,1011.74
2018-08-22T07:09:49.501Z,1011.72
2018-08-22T07:10:49.517Z,1011.77
2018-08-22T07:12:43.964Z,1011.70
2018-08-22T07:13:43.553Z,1011.70
2018-08-22T07:15:37.322Z,1011.67
2018-08-22T07:16:37.333Z,1011.70
2018-08-22T07:18:31.759Z,1011.68
2018-08-22T07:19:31.674Z,1011.68
2018-08-22T07:21:26.088Z,1011.70
2018-08-22T07:22:25.741Z,1011.65
2018-08-22T07:24:18.920Z,1011.68
2018-08-22T07:25:18.983Z,1011.67
2018-08-22T07:27:11.563Z,1011.63
2018-08-22T07:28:11.541Z,1011.63
2018-08-22T07:30:05.022Z,1011.67
2018-08-22T07:31:05.296Z,1011.68
2018-08-22T07:32:58.724Z,1011.66
2018-08-22T07:33:58.710Z,1011.63
2018-08-22T07:35:53.847Z,1011.63
2018-08-22T07:36:52.092Z,1011.67
2018-08-22T07:38:46.532Z,1011.63
2018-08-22T07:39:46.523Z,1011.64
2018-08-22T07:41:39.865Z,1011.63
2018-08-22T07:42:39.937Z,1011.66
2018-08-22T07:44:32.871Z,1011.66
2018-08-22T07:45:32.533Z,1011.69
2018-08-22T07:47:25.504Z,1011.69
2018-08-22T07:48:25.705Z,1011.65
2018-08-22T07:50:22.732Z,1011.67
2018-08-22T07:51:20.151Z,1011.68
2018-08-22T07:53:13.679Z,1011.66
2018-08-22T07:54:13.515Z,1011.67
2018-08-22T07:56:08.187Z,1011.65
2018-08-22T07:57:07.053Z,1011.60
2018-08-22T07:58:59.607Z,1011.64
2018-08-22T07:59:59.938Z,1011.68
2018-08-22T08:01:53.457Z,1011.62
2018-08-22T08:02:53.257Z,1011.60
2018-08-22T08:04:46.734Z,1011.59
2018-08-22T08:05:46.603Z,1011.60
2018-08-22T08:07:40.099Z,1011.63
2018-08-22T08:08:40.124Z,1011.61
2018-08-22T08:10:32.888Z,1011.63
2018-08-22T08:11:33.184Z,1011.65
2018-08-22T08:13:26.389Z,1011.62
2018-08-22T08:14:26.286Z,1011.62
2018-08-22T08:16:20.449Z,1011.59
2018-08-22T08:17:20.746Z,1011.61
2018-08-22T08:19:14.178Z,1011.64
2018-08-22T08:20:14.062Z,1011.66
2018-08-22T08:22:08.142Z,1011.63
2018-08-22T08:23:08.504Z,1011.63
2018-08-22T08:25:01.974Z,1011.62
2018-08-22T08:26:01.958Z,1011.57
2018-08-22T08:27:57.912Z,1011.58
2018-08-22T08:28:54.924Z,1011.58
2018-08-22T08:30:48.357Z,1011.59
2018-08-22T08:31:48.673Z,1011.57
2018-08-22T08:33:42.114Z,1011.57
2018-08-22T08:34:42.002Z,1011.53
2018-08-22T08:36:35.409Z,1011.51
2018-08-22T08:37:36.036Z,1011.50
2018-08-22T08:39:29.436Z,1011.47
2018-08-22T08:40:29.421Z,1011.48
2018-08-22T08:42:22.847Z,1011.45
2018-08-22T08:43:22.783Z,1011.45
2018-08-22T08:45:17.253Z,1011.46
2018-08-22T08:46:17.136Z,1011.47
2018-08-22T08:48:10.282Z,1011.47
2018-08-22T08:49:10.671Z,1011.45
2018-08-22T08:51:03.638Z,1011.49
2018-08-22T08:52:03.953Z,1011.48
2018-08-22T08:53:58.368Z,1011.47
2018-08-22T08:54:58.443Z,1011.44
2018-08-22T08:56:52.295Z,1011.45
2018-08-22T08:57:51.360Z,1011.47
2018-08-22T08:59:44.986Z,1011.47
2018-08-22T09:00:44.695Z,1011.41
2018-08-22T09:02:37.711Z,1011.42
2018-08-22T09:03:37.682Z,1011.43
2018-08-22T09:05:33.030Z,1011.42
2018-08-22T09:06:31.442Z,1011.36
2018-08-22T09:08:25.564Z,1011.35
2018-08-22T09:09:24.963Z,1011.35
2018-08-22T09:11:17.824Z,1011.31
2018-08-22T09:12:18.829Z,1011.30
2018-08-22T09:14:11.314Z,1011.33
2018-08-22T09:15:11.096Z,1011.33
2018-08-22T09:17:04.465Z,1011.25
2018-08-22T09:18:04.582Z,1011.24
2018-08-22T09:19:57.919Z,1011.19
2018-08-22T09:20:57.934Z,1011.20
2018-08-22T09:22:51.334Z,1011.19
2018-08-22T09:23:51.306Z,1011.19
2018-08-22T09:25:44.794Z,1011.18
2018-08-22T09:26:44.936Z,1011.19
2018-08-22T09:28:38.107Z,1011.18
2018-08-22T09:29:37.764Z,1011.16
2018-08-22T09:31:31.483Z,1011.13
2018-08-22T09:32:33.718Z,1011.10
2018-08-22T09:34:24.944Z,1011.05
2018-08-22T09:35:24.618Z,1011.05
2018-08-22T09:37:39.507Z,1011.05
2018-08-22T09:39:12.052Z,1011.01
2018-08-22T09:40:12.045Z,1010.99
2018-08-22T09:42:05.587Z,1010.94
2018-08-22T09:43:05.992Z,1010.92
2018-08-22T09:44:59.414Z,1010.92
2018-08-22T09:45:59.315Z,1010.89
2018-08-22T09:47:52.720Z,1010.95
2018-08-22T09:48:52.776Z,1010.92
2018-08-22T09:50:46.109Z,1010.96
2018-08-22T09:51:46.020Z,1010.95
2018-08-22T09:53:38.653Z,1010.87
2018-08-22T09:54:39.006Z,1010.91
2018-08-22T09:56:32.603Z,1010.90
2018-08-22T09:57:32.381Z,1010.91
2018-08-22T09:59:25.294Z,1010.90
2018-08-22T10:00:25.298Z,1010.92
2018-08-22T10:02:18.726Z,1010.87
2018-08-22T10:03:18.867Z,1010.89
2018-08-22T10:05:11.575Z,1010.83
2018-08-22T10:06:11.273Z,1010.86
2018-08-22T10:08:04.994Z,1010.85
2018-08-22T10:09:04.540Z,1010.82
2018-08-22T10:10:57.828Z,1010.79
2018-08-22T10:11:57.835Z,1010.70
2018-08-22T10:13:51.289Z,1010.77
2018-08-22T10:14:51.301Z,1010.75
2018-08-22T10:16:45.718Z,1010.77
2018-08-22T10:17:45.291Z,1010.73
2018-08-22T10:19:39.048Z,1010.73
2018-08-22T10:20:39.007Z,1010.73
2018-08-22T10:22:32.482Z,1010.69
2018-08-22T10:23:32.462Z,1010.66
2018-08-22T10:25:25.873Z,1010.63
2018-08-22T10:26:25.922Z,1010.61
2018-08-22T10:28:19.785Z,1010.62
2018-08-22T10:29:19.262Z,1010.61
2018-08-22T10:31:12.657Z,1010.62
2018-08-22T10:32:12.658Z,1010.59
2018-08-22T10:34:05.463Z,1010.58
2018-08-22T10:35:05.601Z,1010.54
2018-08-22T10:36:58.908Z,1010.51
2018-08-22T10:37:58.904Z,1010.49
2018-08-22T10:39:54.916Z,1010.50
2018-08-22T10:40:52.356Z,1010.50
2018-08-22T10:42:45.766Z,1010.42
2018-08-22T10:43:45.696Z,1010.41
2018-08-22T10:45:39.051Z,1010.42
2018-08-22T10:46:39.156Z,1010.38
2018-08-22T10:48:32.463Z,1010.35
2018-08-22T10:49:32.456Z,1010.35
2018-08-22T10:51:25.972Z,1010.30
2018-08-22T10:52:25.934Z,1010.33
2018-08-22T10:54:20.798Z,1010.32
2018-08-22T10:55:19.290Z,1010.31
2018-08-22T10:57:12.688Z,1010.34
2018-08-22T10:58:12.295Z,1010.38
2018-08-22T11:00:06.774Z,1010.33
2018-08-22T11:01:06.102Z,1010.33
2018-08-22T11:03:00.176Z,1010.36
2018-08-22T11:03:59.443Z,1010.30
2018-08-22T11:05:53.235Z,1010.27
2018-08-22T11:06:53.194Z,1010.25
2018-08-22T11:08:46.578Z,1010.28
2018-08-22T11:09:46.573Z,1010.28
2018-08-22T11:11:39.347Z,1010.29
2018-08-22T11:12:39.499Z,1010.28
2018-08-22T11:14:32.954Z,1010.26
2018-08-22T11:15:32.597Z,1010.27
2018-08-22T11:17:25.887Z,1010.21
2018-08-22T11:18:25.794Z,1010.28
2018-08-22T11:20:19.200Z,1010.26
2018-08-22T11:21:18.830Z,1010.26
2018-08-22T11:23:12.616Z,1010.30
2018-08-22T11:24:12.526Z,1010.28
2018-08-22T11:26:05.961Z,1010.17
2018-08-22T11:27:06.007Z,1010.20
2018-08-22T11:28:59.495Z,1010.18
2018-08-22T11:29:59.365Z,1010.18
2018-08-22T11:31:54.278Z,1010.16
2018-08-22T11:32:53.519Z,1010.16
2018-08-22T11:34:46.238Z,1010.11
2018-08-22T11:35:46.177Z,1010.12
2018-08-22T11:37:39.662Z,1010.07
2018-08-22T11:38:39.553Z,1010.10
2018-08-22T11:40:32.964Z,1010.12
2018-08-22T11:41:32.604Z,1010.11
2018-08-22T11:43:25.828Z,1010.10
2018-08-22T11:44:25.822Z,1010.11
2018-08-22T11:46:18.905Z,1010.10
2018-08-22T11:47:19.254Z,1010.10
2018-08-22T11:49:19.636Z,1010.14
2018-08-22T11:50:19.710Z,1010.13
2018-08-22T11:52:13.071Z,1010.15
2018-08-22T11:53:13.580Z,1010.14
2018-08-22T11:55:06.499Z,1010.13
2018-08-22T11:56:06.460Z,1010.11
2018-08-22T11:57:59.801Z,1010.10
2018-08-22T11:58:59.868Z,1010.07
2018-08-22T12:00:55.190Z,1010.06
2018-08-22T12:01:54.229Z,1010.10
2018-08-22T12:03:47.821Z,1010.08
2018-08-22T12:04:47.558Z,1010.03
2018-08-22T12:06:41.036Z,1010.05
2018-08-22T12:07:41.000Z,1010.01
2018-08-22T12:09:34.450Z,1010.03
2018-08-22T12:10:34.439Z,1010.02
2018-08-22T12:12:27.819Z,1010.06
2018-08-22T12:13:27.786Z,1010.07
2018-08-22T12:15:22.136Z,1010.02
2018-08-22T12:16:21.163Z,1010.01
2018-08-22T12:18:14.567Z,1010.02
2018-08-22T12:19:14.608Z,1009.98
2018-08-22T12:21:07.535Z,1009.97
2018-08-22T12:22:07.109Z,1009.94
2018-08-22T12:24:01.239Z,1009.91
2018-08-22T12:25:00.882Z,1009.89
2018-08-22T12:26:54.260Z,1009.89
2018-08-22T12:27:53.888Z,1009.89
2018-08-22T12:29:47.160Z,1009.84
2018-08-22T12:30:46.784Z,1009.82
2018-08-22T12:32:40.556Z,1009.86
2018-08-22T12:33:40.183Z,1009.81
2018-08-22T12:35:33.641Z,1009.84
2018-08-22T12:36:33.380Z,1009.82
2018-08-22T12:38:28.391Z,1009.79
2018-08-22T12:39:26.695Z,1009.78
2018-08-22T12:41:19.952Z,1009.79
2018-08-22T12:42:19.949Z,1009.79
2018-08-22T12:44:12.889Z,1009.74
2018-08-22T12:45:12.887Z,1009.70
2018-08-22T12:47:05.783Z,1009.67
2018-08-22T12:48:05.784Z,1009.67
2018-08-22T12:49:59.816Z,1009.57
2018-08-22T12:50:59.177Z,1009.54
2018-08-22T12:52:52.084Z,1009.63
2018-08-22T12:53:52.123Z,1009.65
2018-08-22T12:55:45.522Z,1009.56
2018-08-22T12:56:45.531Z,1009.60
2018-08-22T12:58:40.102Z,1009.55
2018-08-22T12:59:38.867Z,1009.54
2018-08-22T13:01:32.453Z,1009.57
2018-08-22T13:03:45.887Z,1009.54
2018-08-22T13:04:47.321Z,1009.55
2018-08-22T13:06:39.045Z,1009.55
2018-08-22T13:07:38.682Z,1009.52
2018-08-22T13:09:31.969Z,1009.51
2018-08-22T13:10:31.571Z,1009.56
2018-08-22T13:12:25.385Z,1009.53
2018-08-22T13:13:24.953Z,1009.53
2018-08-22T13:15:18.796Z,1009.51
2018-08-22T13:16:18.677Z,1009.48
2018-08-22T13:18:11.649Z,1009.51
2018-08-22T13:19:11.633Z,1009.43
2018-08-22T13:21:04.990Z,1009.45
2018-08-22T13:22:05.035Z,1009.46
2018-08-22T13:23:58.181Z,1009.43
2018-08-22T13:24:58.212Z,1009.41
2018-08-22T13:26:51.577Z,1009.42
2018-08-22T13:27:51.087Z,1009.40
2018-08-22T13:29:44.056Z,1009.36
2018-08-22T13:30:43.959Z,1009.33
2018-08-22T13:32:37.568Z,1009.32
2018-08-22T13:33:36.616Z,1009.33
2018-08-22T13:35:30.388Z,1009.29
2018-08-22T13:36:30.055Z,1009.29
2018-08-22T13:38:23.847Z,1009.28
2018-08-22T13:39:23.432Z,1009.31
2018-08-22T13:41:17.155Z,1009.26
2018-08-22T13:42:16.919Z,1009.28
2018-08-22T13:44:11.282Z,1009.25
2018-08-22T13:45:10.222Z,1009.24
2018-08-22T13:47:03.957Z,1009.29
2018-08-22T13:48:03.979Z,1009.20
2018-08-22T13:49:57.597Z,1009.26
2018-08-22T13:50:57.391Z,1009.19
2018-08-22T13:52:50.057Z,1009.24
2018-08-22T13:53:50.302Z,1009.21
2018-08-22T13:55:43.650Z,1009.20
2018-08-22T13:56:43.630Z,1009.22
2018-08-22T13:58:36.288Z,1009.19
2018-08-22T13:59:36.551Z,1009.18
2018-08-22T14:01:30.040Z,1009.24
2018-08-22T14:02:29.983Z,1009.26
2018-08-22T14:04:24.525Z,1009.26
2018-08-22T14:05:23.572Z,1009.30
2018-08-22T14:07:17.399Z,1009.24
2018-08-22T14:08:17.429Z,1009.23
2018-08-22T14:10:10.277Z,1009.22
2018-08-22T14:11:10.155Z,1009.22
2018-08-22T14:13:03.654Z,1009.22
2018-08-22T14:14:03.604Z,1009.18
2018-08-22T14:15:56.974Z,1009.14
2018-08-22T14:16:56.970Z,1009.15
2018-08-22T14:18:50.390Z,1009.17
2018-08-22T14:19:50.049Z,1009.14
2018-08-22T14:21:43.782Z,1009.16
2018-08-22T14:22:43.411Z,1009.19
2018-08-22T14:24:36.707Z,1009.11
2018-08-22T14:25:36.710Z,1009.12
2018-08-22T14:27:31.145Z,1009.08
2018-08-22T14:28:31.093Z,1009.10
2018-08-22T14:30:24.469Z,1009.07
2018-08-22T14:31:24.533Z,1009.08
2018-08-22T14:33:17.368Z,1009.10
2018-08-22T14:34:17.031Z,1009.05
2018-08-22T14:36:10.785Z,1009.05
2018-08-22T14:37:10.735Z,1009.07
2018-08-22T14:39:04.955Z,1009.06
2018-08-22T14:40:04.138Z,1009.08
2018-08-22T14:41:59.117Z,1009.14
2018-08-22T14:42:57.572Z,1009.12
2018-08-22T14:44:53.280Z,1009.13
2018-08-22T14:45:54.055Z,1009.14
2018-08-22T14:47:47.049Z,1009.11
2018-08-22T14:48:46.525Z,1009.10
2018-08-22T14:50:41.509Z,1009.11
2018-08-22T14:51:41.841Z,1009.09
2018-08-22T14:53:34.777Z,1009.13
2018-08-22T14:54:34.327Z,1009.08
2018-08-22T14:56:28.331Z,1009.04
2018-08-22T14:57:28.078Z,1009.02
2018-08-22T14:59:22.046Z,1009.04
2018-08-22T15:00:20.967Z,1009.07
2018-08-22T15:02:14.332Z,1009.05
2018-08-22T15:03:14.382Z,1009.03
2018-08-22T15:05:07.882Z,1009.02
2018-08-22T15:06:07.734Z,1009.02
2018-08-22T15:08:02.700Z,1008.99
2018-08-22T15:09:01.046Z,1008.98
2018-08-22T15:10:54.193Z,1008.95
2018-08-22T15:11:54.476Z,1008.95
2018-08-22T15:13:47.910Z,1008.93
2018-08-22T15:14:47.961Z,1008.91
2018-08-22T15:16:40.850Z,1008.95
2018-08-22T15:17:40.853Z,1008.95
2018-08-22T15:19:34.229Z,1008.95
2018-08-22T15:20:34.165Z,1009.01
2018-08-22T15:22:27.110Z,1009.00
2018-08-22T15:23:27.121Z,1008.98
2018-08-22T15:25:20.558Z,1008.94
2018-08-22T15:26:20.163Z,1008.98
2018-08-22T15:28:13.566Z,1008.98
2018-08-22T15:29:14.152Z,1008.91
2018-08-22T15:31:07.359Z,1008.93
2018-08-22T15:32:06.974Z,1008.94
2018-08-22T15:34:00.784Z,1008.91
2018-08-22T15:35:01.312Z,1008.92
2018-08-22T15:36:54.256Z,1008.91
2018-08-22T15:37:54.679Z,1008.91
2018-08-22T15:39:47.351Z,1008.90
2018-08-22T15:40:47.281Z,1008.90
2018-08-22T15:42:40.816Z,1008.92
2018-08-22T15:43:42.192Z,1008.88
2018-08-22T15:45:33.508Z,1008.92
2018-08-22T15:46:33.535Z,1008.88
2018-08-22T15:48:26.478Z,1008.86
2018-08-22T15:49:26.379Z,1008.89
2018-08-22T15:51:20.125Z,1008.83
2018-08-22T15:52:19.897Z,1008.84
2018-08-22T15:54:13.259Z,1008.85
2018-08-22T15:55:13.267Z,1008.85
2018-08-22T15:57:06.656Z,1008.81
2018-08-22T15:58:06.337Z,1008.79
2018-08-22T16:00:00.042Z,1008.84
2018-08-22T16:01:00.013Z,1008.83
2018-08-22T16:02:52.965Z,1008.81
2018-08-22T16:03:52.862Z,1008.75
2018-08-22T16:05:46.278Z,1008.77
2018-08-22T16:06:46.326Z,1008.74
2018-08-22T16:08:39.692Z,1008.75
2018-08-22T16:09:39.706Z,1008.72
2018-08-22T16:11:33.077Z,1008.74
2018-08-22T16:12:32.759Z,1008.71
2018-08-22T16:14:27.730Z,1008.69
2018-08-22T16:15:28.059Z,1008.67
2018-08-22T16:17:20.909Z,1008.68
2018-08-22T16:18:20.893Z,1008.72
2018-08-22T16:20:14.373Z,1008.69
2018-08-22T16:21:16.472Z,1008.69
2018-08-22T16:23:07.655Z,1008.68
2018-08-22T16:24:07.684Z,1008.67
2018-08-22T16:26:24.584Z,1008.67
2018-08-22T16:27:04.126Z,1008.63
2018-08-22T16:28:57.001Z,1008.65
2018-08-22T16:29:56.217Z,1008.66
2018-08-22T16:31:49.469Z,1008.67
2018-08-22T16:32:49.423Z,1008.65
2018-08-22T16:34:42.331Z,1008.69
2018-08-22T16:35:42.893Z,1008.70
2018-08-22T16:37:34.996Z,1008.68
2018-08-22T16:38:35.244Z,1008.66
2018-08-22T16:40:28.713Z,1008.68
2018-08-22T16:41:28.598Z,1008.68
2018-08-22T16:43:22.051Z,1008.67
2018-08-22T16:44:22.040Z,1008.69
2018-08-22T16:46:16.473Z,1008.68
2018-08-22T16:47:17.918Z,1008.64
2018-08-22T16:49:10.828Z,1008.65
2018-08-22T16:50:10.762Z,1008.64
2018-08-22T16:52:04.176Z,1008.63
2018-08-22T16:53:04.681Z,1008.62
2018-08-22T16:54:58.174Z,1008.65
2018-08-22T16:55:57.611Z,1008.63
2018-08-22T16:57:51.562Z,1008.63
2018-08-22T16:58:51.627Z,1008.64
2018-08-22T17:00:44.446Z,1008.61
2018-08-22T17:01:44.424Z,1008.64
2018-08-22T17:03:37.754Z,1008.64
2018-08-22T17:04:37.465Z,1008.64
2018-08-22T17:06:31.161Z,1008.63
2018-08-22T17:07:31.183Z,1008.58
2018-08-22T17:09:25.315Z,1008.61
2018-08-22T17:10:24.058Z,1008.61
2018-08-22T17:12:17.454Z,1008.58
2018-08-22T17:13:17.552Z,1008.60
2018-08-22T17:15:12.126Z,1008.57
2018-08-22T17:16:12.084Z,1008.63
2018-08-22T17:18:05.276Z,1008.58
2018-08-22T17:19:05.811Z,1008.61
2018-08-22T17:20:58.622Z,1008.56
2018-08-22T17:21:58.644Z,1008.59
2018-08-22T17:23:51.553Z,1008.61
2018-08-22T17:24:51.219Z,1008.63
2018-08-22T17:26:50.031Z,1008.64
2018-08-22T17:27:45.165Z,1008.65
2018-08-22T17:29:48.071Z,1008.64
2018-08-22T17:30:38.609Z,1008.68